sensor_id;sensor_type;location;lat;lon;timestamp;P1;durP1;ratioP1;P2;durP2;ratioP2
75154;SDS011;63735;44.730;37.818;2023-06-01T00:02:22;15.25;;;8.60;;
75154;SDS011;63735;44.730;37.818;2023-06-01T00:04:49;16.70;;;6.93;;
75154;SDS011;63735;44.730;37.818;2023-06-01T00:07:15;13.80;;;6.47;;
75154;SDS011;63735;44.730;37.818;2023-06-01T00:09:41;14.27;;;7.05;;
75154;SDS011;63735;44.730;37.818;2023-06-01T00:12:07;16.42;;;7.13;;
75154;SDS011;63735;44.730;37.818;2023-06-01T00:14:34;13.90;;;6.75;;
75154;SDS011;63735;44.730;37.818;2023-06-01T00:17:00;14.30;;;7.53;;
75154;SDS011;63735;44.730;37.818;2023-06-01T00:19:28;14.23;;;8.13;;
75154;SDS011;63735;44.730;37.818;2023-06-01T00:21:54;18.13;;;9.52;;
75154;SDS011;63735;44.730;37.818;2023-06-01T00:24:21;24.15;;;9.75;;
75154;SDS011;63735;44.730;37.818;2023-06-01T00:26:47;23.88;;;9.68;;
75154;SDS011;63735;44.730;37.818;2023-06-01T00:29:14;21.58;;;8.93;;
75154;SDS011;63735;44.730;37.818;2023-06-01T00:31:40;20.92;;;9.23;;
75154;SDS011;63735;44.730;37.818;2023-06-01T00:34:06;22.00;;;10.32;;
75154;SDS011;63735;44.730;37.818;2023-06-01T00:36:32;18.38;;;8.85;;
75154;SDS011;63735;44.730;37.818;2023-06-01T00:38:58;23.23;;;10.02;;
75154;SDS011;63735;44.730;37.818;2023-06-01T00:41:30;20.08;;;9.73;;
75154;SDS011;63735;44.730;37.818;2023-06-01T00:43:57;22.83;;;9.32;;
75154;SDS011;63735;44.730;37.818;2023-06-01T00:46:23;18.08;;;9.60;;
75154;SDS011;63735;44.730;37.818;2023-06-01T00:48:53;19.85;;;8.73;;
75154;SDS011;63735;44.730;37.818;2023-06-01T00:51:20;13.98;;;8.10;;
75154;SDS011;63735;44.730;37.818;2023-06-01T00:53:46;17.10;;;8.32;;
75154;SDS011;63735;44.730;37.818;2023-06-01T00:56:12;16.90;;;8.10;;
75154;SDS011;63735;44.730;37.818;2023-06-01T00:58:38;16.20;;;7.65;;
75154;SDS011;63735;44.730;37.818;2023-06-01T01:01:05;12.40;;;7.50;;
75154;SDS011;63735;44.730;37.818;2023-06-01T01:03:33;14.75;;;7.78;;
75154;SDS011;63735;44.730;37.818;2023-06-01T01:06:10;12.95;;;7.57;;
75154;SDS011;63735;44.730;37.818;2023-06-01T01:09:08;12.77;;;8.00;;
75154;SDS011;63735;44.730;37.818;2023-06-01T01:11:43;13.80;;;7.43;;
75154;SDS011;63735;44.730;37.818;2023-06-01T01:14:21;14.85;;;7.45;;
75154;SDS011;63735;44.730;37.818;2023-06-01T01:22:20;21.40;;;8.07;;
75154;SDS011;63735;44.730;37.818;2023-06-01T01:30:42;16.52;;;9.27;;
75154;SDS011;63735;44.730;37.818;2023-06-01T01:33:10;20.15;;;9.02;;
75154;SDS011;63735;44.730;37.818;2023-06-01T01:35:37;16.80;;;8.07;;
75154;SDS011;63735;44.730;37.818;2023-06-01T01:38:04;18.20;;;9.18;;
75154;SDS011;63735;44.730;37.818;2023-06-01T01:40:30;14.70;;;7.47;;
75154;SDS011;63735;44.730;37.818;2023-06-01T01:42:56;17.50;;;8.10;;
75154;SDS011;63735;44.730;37.818;2023-06-01T01:45:22;21.27;;;8.90;;
75154;SDS011;63735;44.730;37.818;2023-06-01T01:48:11;33.78;;;10.70;;
75154;SDS011;63735;44.730;37.818;2023-06-01T01:51:06;20.55;;;9.50;;
75154;SDS011;63735;44.730;37.818;2023-06-01T01:53:36;20.38;;;6.65;;
75154;SDS011;63735;44.730;37.818;2023-06-01T01:56:05;15.13;;;6.93;;
75154;SDS011;63735;44.730;37.818;2023-06-01T01:58:33;18.80;;;8.60;;
75154;SDS011;63735;44.730;37.818;2023-06-01T02:01:00;31.75;;;8.65;;
75154;SDS011;63735;44.730;37.818;2023-06-01T02:03:29;23.23;;;7.80;;
75154;SDS011;63735;44.730;37.818;2023-06-01T02:05:55;43.17;;;9.60;;
75154;SDS011;63735;44.730;37.818;2023-06-01T02:08:21;35.55;;;10.65;;
75154;SDS011;63735;44.730;37.818;2023-06-01T02:10:46;27.15;;;11.15;;
75154;SDS011;63735;44.730;37.818;2023-06-01T02:13:12;36.70;;;12.35;;
75154;SDS011;63735;44.730;37.818;2023-06-01T02:15:38;37.55;;;12.02;;
75154;SDS011;63735;44.730;37.818;2023-06-01T02:18:04;40.15;;;11.98;;
75154;SDS011;63735;44.730;37.818;2023-06-01T02:20:31;27.40;;;11.25;;
75154;SDS011;63735;44.730;37.818;2023-06-01T02:22:58;35.38;;;13.70;;
75154;SDS011;63735;44.730;37.818;2023-06-01T02:25:23;32.03;;;12.68;;
75154;SDS011;63735;44.730;37.818;2023-06-01T02:27:49;31.67;;;12.43;;
75154;SDS011;63735;44.730;37.818;2023-06-01T02:30:15;28.92;;;11.52;;
75154;SDS011;63735;44.730;37.818;2023-06-01T02:32:41;29.45;;;13.38;;
75154;SDS011;63735;44.730;37.818;2023-06-01T02:35:11;35.05;;;13.45;;
75154;SDS011;63735;44.730;37.818;2023-06-01T02:37:37;25.05;;;13.02;;
75154;SDS011;63735;44.730;37.818;2023-06-01T02:40:04;27.38;;;14.05;;
75154;SDS011;63735;44.730;37.818;2023-06-01T02:42:32;27.85;;;14.55;;
75154;SDS011;63735;44.730;37.818;2023-06-01T02:44:58;27.75;;;13.75;;
75154;SDS011;63735;44.730;37.818;2023-06-01T02:47:24;27.10;;;12.68;;
75154;SDS011;63735;44.730;37.818;2023-06-01T02:49:50;25.17;;;12.57;;
75154;SDS011;63735;44.730;37.818;2023-06-01T02:52:16;23.20;;;11.43;;
75154;SDS011;63735;44.730;37.818;2023-06-01T02:54:41;21.08;;;10.30;;
75154;SDS011;63735;44.730;37.818;2023-06-01T02:57:34;16.20;;;8.90;;
75154;SDS011;63735;44.730;37.818;2023-06-01T03:00:03;21.52;;;10.65;;
75154;SDS011;63735;44.730;37.818;2023-06-01T03:02:30;18.17;;;9.57;;
75154;SDS011;63735;44.730;37.818;2023-06-01T03:04:56;14.18;;;8.73;;
75154;SDS011;63735;44.730;37.818;2023-06-01T03:07:22;15.38;;;8.95;;
75154;SDS011;63735;44.730;37.818;2023-06-01T03:09:51;16.63;;;8.32;;
75154;SDS011;63735;44.730;37.818;2023-06-01T03:12:20;19.33;;;9.15;;
75154;SDS011;63735;44.730;37.818;2023-06-01T03:14:46;26.52;;;9.77;;
75154;SDS011;63735;44.730;37.818;2023-06-01T03:17:12;16.40;;;9.13;;
75154;SDS011;63735;44.730;37.818;2023-06-01T03:19:38;20.13;;;8.95;;
75154;SDS011;63735;44.730;37.818;2023-06-01T03:22:14;18.95;;;8.52;;
75154;SDS011;63735;44.730;37.818;2023-06-01T03:24:40;17.15;;;7.22;;
75154;SDS011;63735;44.730;37.818;2023-06-01T03:27:08;24.25;;;9.45;;
75154;SDS011;63735;44.730;37.818;2023-06-01T03:29:36;18.67;;;10.02;;
75154;SDS011;63735;44.730;37.818;2023-06-01T03:32:02;16.02;;;9.27;;
75154;SDS011;63735;44.730;37.818;2023-06-01T03:34:29;25.30;;;10.45;;
75154;SDS011;63735;44.730;37.818;2023-06-01T03:36:54;16.33;;;9.68;;
75154;SDS011;63735;44.730;37.818;2023-06-01T03:39:22;20.50;;;9.43;;
75154;SDS011;63735;44.730;37.818;2023-06-01T03:41:47;18.90;;;11.05;;
75154;SDS011;63735;44.730;37.818;2023-06-01T03:44:14;24.65;;;9.82;;
75154;SDS011;63735;44.730;37.818;2023-06-01T03:46:41;25.52;;;11.15;;
75154;SDS011;63735;44.730;37.818;2023-06-01T03:49:07;17.65;;;9.90;;
75154;SDS011;63735;44.730;37.818;2023-06-01T03:51:33;21.00;;;10.55;;
75154;SDS011;63735;44.730;37.818;2023-06-01T03:54:01;23.20;;;10.77;;
75154;SDS011;63735;44.730;37.818;2023-06-01T03:56:27;23.00;;;10.15;;
75154;SDS011;63735;44.730;37.818;2023-06-01T03:58:57;24.25;;;11.13;;
75154;SDS011;63735;44.730;37.818;2023-06-01T04:01:24;26.90;;;10.13;;
75154;SDS011;63735;44.730;37.818;2023-06-01T04:03:55;30.05;;;10.57;;
75154;SDS011;63735;44.730;37.818;2023-06-01T04:06:22;17.70;;;9.82;;
75154;SDS011;63735;44.730;37.818;2023-06-01T04:08:50;19.92;;;9.50;;
75154;SDS011;63735;44.730;37.818;2023-06-01T04:11:21;19.92;;;10.25;;
75154;SDS011;63735;44.730;37.818;2023-06-01T04:13:48;21.00;;;9.48;;
75154;SDS011;63735;44.730;37.818;2023-06-01T04:16:14;17.50;;;9.27;;
75154;SDS011;63735;44.730;37.818;2023-06-01T04:18:41;15.02;;;6.57;;
75154;SDS011;63735;44.730;37.818;2023-06-01T04:21:13;23.42;;;11.63;;
75154;SDS011;63735;44.730;37.818;2023-06-01T04:23:40;20.52;;;8.95;;
75154;SDS011;63735;44.730;37.818;2023-06-01T04:26:10;13.63;;;6.32;;
75154;SDS011;63735;44.730;37.818;2023-06-01T04:28:36;21.42;;;11.73;;
75154;SDS011;63735;44.730;37.818;2023-06-01T04:31:10;15.27;;;8.80;;
75154;SDS011;63735;44.730;37.818;2023-06-01T04:33:43;18.48;;;10.90;;
75154;SDS011;63735;44.730;37.818;2023-06-01T04:36:12;26.48;;;8.70;;
75154;SDS011;63735;44.730;37.818;2023-06-01T04:38:41;15.63;;;7.30;;
75154;SDS011;63735;44.730;37.818;2023-06-01T04:41:08;13.43;;;8.32;;
75154;SDS011;63735;44.730;37.818;2023-06-01T04:43:37;16.05;;;9.55;;
75154;SDS011;63735;44.730;37.818;2023-06-01T04:46:08;22.38;;;11.63;;
75154;SDS011;63735;44.730;37.818;2023-06-01T04:48:35;24.55;;;11.43;;
75154;SDS011;63735;44.730;37.818;2023-06-01T04:53:29;11.52;;;6.53;;
75154;SDS011;63735;44.730;37.818;2023-06-01T04:55:55;24.27;;;9.68;;
75154;SDS011;63735;44.730;37.818;2023-06-01T04:58:22;16.33;;;7.90;;
75154;SDS011;63735;44.730;37.818;2023-06-01T05:00:47;21.67;;;10.23;;
75154;SDS011;63735;44.730;37.818;2023-06-01T05:03:14;25.35;;;10.77;;
75154;SDS011;63735;44.730;37.818;2023-06-01T05:05:41;18.63;;;8.38;;
75154;SDS011;63735;44.730;37.818;2023-06-01T05:08:07;18.60;;;6.50;;
75154;SDS011;63735;44.730;37.818;2023-06-01T05:10:33;18.20;;;9.30;;
75154;SDS011;63735;44.730;37.818;2023-06-01T05:12:59;22.30;;;9.73;;
75154;SDS011;63735;44.730;37.818;2023-06-01T05:15:25;15.43;;;8.35;;
75154;SDS011;63735;44.730;37.818;2023-06-01T05:17:54;12.02;;;6.80;;
75154;SDS011;63735;44.730;37.818;2023-06-01T05:20:20;17.73;;;7.05;;
75154;SDS011;63735;44.730;37.818;2023-06-01T05:22:55;9.98;;;5.10;;
75154;SDS011;63735;44.730;37.818;2023-06-01T05:25:21;15.40;;;6.72;;
75154;SDS011;63735;44.730;37.818;2023-06-01T05:27:47;8.93;;;5.10;;
75154;SDS011;63735;44.730;37.818;2023-06-01T05:30:13;11.82;;;5.50;;
75154;SDS011;63735;44.730;37.818;2023-06-01T05:32:40;15.07;;;6.53;;
75154;SDS011;63735;44.730;37.818;2023-06-01T05:35:12;17.80;;;6.65;;
75154;SDS011;63735;44.730;37.818;2023-06-01T05:37:39;11.70;;;4.82;;
75154;SDS011;63735;44.730;37.818;2023-06-01T05:40:05;15.55;;;7.25;;
75154;SDS011;63735;44.730;37.818;2023-06-01T05:42:33;10.70;;;4.50;;
75154;SDS011;63735;44.730;37.818;2023-06-01T05:45:00;15.60;;;6.72;;
75154;SDS011;63735;44.730;37.818;2023-06-01T05:47:26;14.18;;;8.45;;
75154;SDS011;63735;44.730;37.818;2023-06-01T05:49:53;14.88;;;7.40;;
75154;SDS011;63735;44.730;37.818;2023-06-01T05:52:19;11.98;;;5.82;;
75154;SDS011;63735;44.730;37.818;2023-06-01T05:54:44;21.33;;;8.80;;
75154;SDS011;63735;44.730;37.818;2023-06-01T05:57:10;21.00;;;9.05;;
75154;SDS011;63735;44.730;37.818;2023-06-01T05:59:36;25.08;;;8.75;;
75154;SDS011;63735;44.730;37.818;2023-06-01T06:02:03;9.35;;;5.57;;
75154;SDS011;63735;44.730;37.818;2023-06-01T06:04:29;16.95;;;6.15;;
75154;SDS011;63735;44.730;37.818;2023-06-01T06:06:55;15.48;;;6.53;;
75154;SDS011;63735;44.730;37.818;2023-06-01T06:09:21;10.57;;;4.93;;
75154;SDS011;63735;44.730;37.818;2023-06-01T06:11:46;22.95;;;8.45;;
75154;SDS011;63735;44.730;37.818;2023-06-01T06:14:12;18.38;;;7.80;;
75154;SDS011;63735;44.730;37.818;2023-06-01T06:16:38;13.85;;;6.82;;
75154;SDS011;63735;44.730;37.818;2023-06-01T06:19:05;16.17;;;7.40;;
75154;SDS011;63735;44.730;37.818;2023-06-01T06:21:31;14.15;;;6.20;;
75154;SDS011;63735;44.730;37.818;2023-06-01T06:23:57;12.75;;;5.88;;
75154;SDS011;63735;44.730;37.818;2023-06-01T06:26:27;13.55;;;5.60;;
75154;SDS011;63735;44.730;37.818;2023-06-01T06:28:53;9.65;;;4.55;;
75154;SDS011;63735;44.730;37.818;2023-06-01T06:31:19;9.75;;;4.60;;
75154;SDS011;63735;44.730;37.818;2023-06-01T06:33:45;13.00;;;6.65;;
75154;SDS011;63735;44.730;37.818;2023-06-01T06:36:11;12.25;;;5.25;;
75154;SDS011;63735;44.730;37.818;2023-06-01T06:38:37;16.92;;;6.25;;
75154;SDS011;63735;44.730;37.818;2023-06-01T06:41:03;13.10;;;4.20;;
75154;SDS011;63735;44.730;37.818;2023-06-01T06:43:29;14.73;;;4.88;;
75154;SDS011;63735;44.730;37.818;2023-06-01T06:45:55;10.88;;;4.80;;
75154;SDS011;63735;44.730;37.818;2023-06-01T06:48:20;13.80;;;6.60;;
75154;SDS011;63735;44.730;37.818;2023-06-01T06:50:46;15.95;;;6.25;;
75154;SDS011;63735;44.730;37.818;2023-06-01T06:53:12;16.17;;;5.22;;
75154;SDS011;63735;44.730;37.818;2023-06-01T06:55:38;18.60;;;6.30;;
75154;SDS011;63735;44.730;37.818;2023-06-01T06:58:04;13.27;;;6.35;;
75154;SDS011;63735;44.730;37.818;2023-06-01T07:00:30;21.63;;;6.90;;
75154;SDS011;63735;44.730;37.818;2023-06-01T07:02:57;13.05;;;6.25;;
75154;SDS011;63735;44.730;37.818;2023-06-01T07:05:24;10.18;;;4.75;;
75154;SDS011;63735;44.730;37.818;2023-06-01T07:07:50;12.15;;;5.80;;
75154;SDS011;63735;44.730;37.818;2023-06-01T07:10:16;14.30;;;5.25;;
75154;SDS011;63735;44.730;37.818;2023-06-01T07:12:42;14.73;;;5.65;;
75154;SDS011;63735;44.730;37.818;2023-06-01T07:15:08;14.13;;;5.95;;
75154;SDS011;63735;44.730;37.818;2023-06-01T07:17:34;10.02;;;5.18;;
75154;SDS011;63735;44.730;37.818;2023-06-01T07:20:02;8.45;;;3.90;;
75154;SDS011;63735;44.730;37.818;2023-06-01T07:22:32;12.65;;;5.63;;
75154;SDS011;63735;44.730;37.818;2023-06-01T07:24:58;11.25;;;4.57;;
75154;SDS011;63735;44.730;37.818;2023-06-01T07:27:24;9.10;;;5.10;;
75154;SDS011;63735;44.730;37.818;2023-06-01T07:29:51;13.82;;;4.97;;
75154;SDS011;63735;44.730;37.818;2023-06-01T07:32:23;13.43;;;5.55;;
75154;SDS011;63735;44.730;37.818;2023-06-01T07:34:50;16.00;;;5.63;;
75154;SDS011;63735;44.730;37.818;2023-06-01T07:37:16;11.73;;;5.20;;
75154;SDS011;63735;44.730;37.818;2023-06-01T07:39:47;18.95;;;5.10;;
75154;SDS011;63735;44.730;37.818;2023-06-01T07:42:14;15.07;;;5.70;;
75154;SDS011;63735;44.730;37.818;2023-06-01T07:44:40;13.55;;;4.97;;
75154;SDS011;63735;44.730;37.818;2023-06-01T07:47:06;8.05;;;3.90;;
75154;SDS011;63735;44.730;37.818;2023-06-01T07:49:32;9.38;;;4.85;;
75154;SDS011;63735;44.730;37.818;2023-06-01T07:52:01;19.70;;;5.45;;
75154;SDS011;63735;44.730;37.818;2023-06-01T07:54:28;12.77;;;3.58;;
75154;SDS011;63735;44.730;37.818;2023-06-01T07:56:53;16.48;;;5.55;;
75154;SDS011;63735;44.730;37.818;2023-06-01T07:59:20;15.20;;;3.47;;
75154;SDS011;63735;44.730;37.818;2023-06-01T08:01:53;10.63;;;4.38;;
75154;SDS011;63735;44.730;37.818;2023-06-01T08:04:20;6.15;;;2.75;;
75154;SDS011;63735;44.730;37.818;2023-06-01T08:06:46;13.90;;;4.68;;
75154;SDS011;63735;44.730;37.818;2023-06-01T08:09:13;17.77;;;4.75;;
75154;SDS011;63735;44.730;37.818;2023-06-01T08:11:39;7.30;;;3.70;;
75154;SDS011;63735;44.730;37.818;2023-06-01T08:14:05;19.33;;;5.13;;
75154;SDS011;63735;44.730;37.818;2023-06-01T08:16:34;11.18;;;5.00;;
75154;SDS011;63735;44.730;37.818;2023-06-01T08:19:00;13.93;;;4.00;;
75154;SDS011;63735;44.730;37.818;2023-06-01T08:21:26;14.38;;;5.22;;
75154;SDS011;63735;44.730;37.818;2023-06-01T08:23:52;5.75;;;2.53;;
75154;SDS011;63735;44.730;37.818;2023-06-01T08:26:22;10.43;;;4.40;;
75154;SDS011;63735;44.730;37.818;2023-06-01T08:28:49;17.48;;;5.90;;
75154;SDS011;63735;44.730;37.818;2023-06-01T08:31:18;13.63;;;3.42;;
75154;SDS011;63735;44.730;37.818;2023-06-01T08:33:46;14.50;;;5.65;;
75154;SDS011;63735;44.730;37.818;2023-06-01T08:36:12;21.80;;;6.15;;
75154;SDS011;63735;44.730;37.818;2023-06-01T08:38:38;15.75;;;5.28;;
75154;SDS011;63735;44.730;37.818;2023-06-01T08:43:43;12.60;;;4.65;;
75154;SDS011;63735;44.730;37.818;2023-06-01T08:46:12;12.40;;;3.97;;
75154;SDS011;63735;44.730;37.818;2023-06-01T08:48:41;12.02;;;4.00;;
75154;SDS011;63735;44.730;37.818;2023-06-01T08:51:09;17.88;;;4.35;;
75154;SDS011;63735;44.730;37.818;2023-06-01T08:53:36;10.48;;;3.90;;
75154;SDS011;63735;44.730;37.818;2023-06-01T08:56:07;13.73;;;3.33;;
75154;SDS011;63735;44.730;37.818;2023-06-01T08:58:33;5.45;;;2.30;;
75154;SDS011;63735;44.730;37.818;2023-06-01T09:01:02;11.35;;;3.38;;
75154;SDS011;63735;44.730;37.818;2023-06-01T09:03:28;6.90;;;3.80;;
75154;SDS011;63735;44.730;37.818;2023-06-01T09:05:53;5.70;;;2.17;;
75154;SDS011;63735;44.730;37.818;2023-06-01T09:08:20;3.85;;;2.25;;
75154;SDS011;63735;44.730;37.818;2023-06-01T09:10:48;13.45;;;2.42;;
75154;SDS011;63735;44.730;37.818;2023-06-01T09:13:14;9.63;;;3.63;;
75154;SDS011;63735;44.730;37.818;2023-06-01T09:16:05;6.55;;;3.47;;
75154;SDS011;63735;44.730;37.818;2023-06-01T09:18:32;6.50;;;2.47;;
75154;SDS011;63735;44.730;37.818;2023-06-01T09:23:37;5.07;;;2.33;;
75154;SDS011;63735;44.730;37.818;2023-06-01T09:31:38;9.70;;;2.70;;
75154;SDS011;63735;44.730;37.818;2023-06-01T09:34:06;9.38;;;2.90;;
75154;SDS011;63735;44.730;37.818;2023-06-01T09:36:36;5.75;;;2.60;;
75154;SDS011;63735;44.730;37.818;2023-06-01T09:44:22;9.13;;;2.47;;
75154;SDS011;63735;44.730;37.818;2023-06-01T09:46:51;10.23;;;3.45;;
75154;SDS011;63735;44.730;37.818;2023-06-01T09:51:50;9.00;;;3.67;;
75154;SDS011;63735;44.730;37.818;2023-06-01T09:54:27;9.18;;;3.67;;
75154;SDS011;63735;44.730;37.818;2023-06-01T09:56:54;7.82;;;3.33;;
75154;SDS011;63735;44.730;37.818;2023-06-01T09:59:23;7.25;;;3.15;;
75154;SDS011;63735;44.730;37.818;2023-06-01T10:01:51;7.35;;;3.25;;
75154;SDS011;63735;44.730;37.818;2023-06-01T10:04:22;12.55;;;3.40;;
75154;SDS011;63735;44.730;37.818;2023-06-01T10:06:57;5.63;;;2.97;;
75154;SDS011;63735;44.730;37.818;2023-06-01T10:09:24;8.02;;;2.85;;
75154;SDS011;63735;44.730;37.818;2023-06-01T10:11:52;8.38;;;3.58;;
75154;SDS011;63735;44.730;37.818;2023-06-01T10:14:20;13.38;;;3.58;;
75154;SDS011;63735;44.730;37.818;2023-06-01T10:16:48;8.48;;;4.05;;
75154;SDS011;63735;44.730;37.818;2023-06-01T10:19:16;8.95;;;3.30;;
75154;SDS011;63735;44.730;37.818;2023-06-01T10:21:43;10.13;;;3.47;;
75154;SDS011;63735;44.730;37.818;2023-06-01T10:24:12;11.57;;;3.88;;
75154;SDS011;63735;44.730;37.818;2023-06-01T10:26:44;9.23;;;3.70;;
75154;SDS011;63735;44.730;37.818;2023-06-01T10:29:14;4.93;;;2.13;;
75154;SDS011;63735;44.730;37.818;2023-06-01T10:31:43;5.93;;;2.67;;
75154;SDS011;63735;44.730;37.818;2023-06-01T10:34:10;7.40;;;2.72;;
75154;SDS011;63735;44.730;37.818;2023-06-01T10:39:28;6.53;;;3.13;;
75154;SDS011;63735;44.730;37.818;2023-06-01T10:41:58;8.07;;;3.08;;
75154;SDS011;63735;44.730;37.818;2023-06-01T10:57:44;15.63;;;3.97;;
75154;SDS011;63735;44.730;37.818;2023-06-01T11:02:46;9.02;;;3.80;;
75154;SDS011;63735;44.730;37.818;2023-06-01T11:08:04;5.30;;;2.17;;
75154;SDS011;63735;44.730;37.818;2023-06-01T11:13:16;14.02;;;5.05;;
75154;SDS011;63735;44.730;37.818;2023-06-01T11:19:03;10.48;;;4.53;;
75154;SDS011;63735;44.730;37.818;2023-06-01T11:24:06;14.07;;;4.75;;
75154;SDS011;63735;44.730;37.818;2023-06-01T11:31:40;11.30;;;4.22;;
75154;SDS011;63735;44.730;37.818;2023-06-01T11:34:12;12.18;;;4.60;;
75154;SDS011;63735;44.730;37.818;2023-06-01T11:36:39;8.20;;;4.00;;
75154;SDS011;63735;44.730;37.818;2023-06-01T11:39:22;14.18;;;4.00;;
75154;SDS011;63735;44.730;37.818;2023-06-01T11:42:10;9.88;;;3.58;;
75154;SDS011;63735;44.730;37.818;2023-06-01T11:44:44;18.23;;;4.85;;
75154;SDS011;63735;44.730;37.818;2023-06-01T11:47:27;10.77;;;4.90;;
75154;SDS011;63735;44.730;37.818;2023-06-01T11:49:55;12.75;;;4.40;;
75154;SDS011;63735;44.730;37.818;2023-06-01T11:52:21;7.80;;;3.83;;
75154;SDS011;63735;44.730;37.818;2023-06-01T11:54:47;5.90;;;3.83;;
75154;SDS011;63735;44.730;37.818;2023-06-01T11:57:14;8.88;;;3.60;;
75154;SDS011;63735;44.730;37.818;2023-06-01T11:59:41;16.73;;;4.53;;
75154;SDS011;63735;44.730;37.818;2023-06-01T12:02:18;12.02;;;4.88;;
75154;SDS011;63735;44.730;37.818;2023-06-01T12:04:57;12.88;;;5.70;;
75154;SDS011;63735;44.730;37.818;2023-06-01T12:10:13;16.92;;;5.22;;
75154;SDS011;63735;44.730;37.818;2023-06-01T12:12:42;11.45;;;5.18;;
75154;SDS011;63735;44.730;37.818;2023-06-01T12:15:09;17.58;;;5.95;;
75154;SDS011;63735;44.730;37.818;2023-06-01T12:17:49;8.38;;;5.35;;
75154;SDS011;63735;44.730;37.818;2023-06-01T12:22:55;10.95;;;4.32;;
75154;SDS011;63735;44.730;37.818;2023-06-01T12:25:26;13.98;;;5.15;;
75154;SDS011;63735;44.730;37.818;2023-06-01T12:28:04;12.60;;;4.68;;
75154;SDS011;63735;44.730;37.818;2023-06-01T12:30:31;7.38;;;4.25;;
75154;SDS011;63735;44.730;37.818;2023-06-01T12:32:57;14.60;;;5.32;;
75154;SDS011;63735;44.730;37.818;2023-06-01T12:35:24;13.95;;;4.13;;
75154;SDS011;63735;44.730;37.818;2023-06-01T12:38:03;7.93;;;3.80;;
75154;SDS011;63735;44.730;37.818;2023-06-01T12:40:33;15.23;;;4.30;;
75154;SDS011;63735;44.730;37.818;2023-06-01T12:42:59;17.48;;;5.00;;
75154;SDS011;63735;44.730;37.818;2023-06-01T12:45:25;11.32;;;3.78;;
75154;SDS011;63735;44.730;37.818;2023-06-01T12:48:01;9.85;;;3.58;;
75154;SDS011;63735;44.730;37.818;2023-06-01T12:50:28;9.55;;;3.25;;
75154;SDS011;63735;44.730;37.818;2023-06-01T12:52:54;11.32;;;3.70;;
75154;SDS011;63735;44.730;37.818;2023-06-01T12:55:20;10.32;;;3.35;;
75154;SDS011;63735;44.730;37.818;2023-06-01T12:57:53;7.22;;;3.30;;
75154;SDS011;63735;44.730;37.818;2023-06-01T13:00:20;9.15;;;3.00;;
75154;SDS011;63735;44.730;37.818;2023-06-01T13:02:47;11.15;;;4.20;;
75154;SDS011;63735;44.730;37.818;2023-06-01T13:05:16;3.75;;;2.13;;
75154;SDS011;63735;44.730;37.818;2023-06-01T13:07:45;9.57;;;3.42;;
75154;SDS011;63735;44.730;37.818;2023-06-01T13:10:12;8.13;;;3.25;;
75154;SDS011;63735;44.730;37.818;2023-06-01T13:12:38;10.45;;;3.35;;
75154;SDS011;63735;44.730;37.818;2023-06-01T13:15:07;7.72;;;3.35;;
75154;SDS011;63735;44.730;37.818;2023-06-01T13:17:34;8.35;;;3.58;;
75154;SDS011;63735;44.730;37.818;2023-06-01T13:19:59;7.95;;;3.50;;
75154;SDS011;63735;44.730;37.818;2023-06-01T13:22:25;10.48;;;4.00;;
75154;SDS011;63735;44.730;37.818;2023-06-01T13:24:51;14.77;;;3.85;;
75154;SDS011;63735;44.730;37.818;2023-06-01T13:27:17;9.90;;;3.60;;
75154;SDS011;63735;44.730;37.818;2023-06-01T13:29:43;13.20;;;4.47;;
75154;SDS011;63735;44.730;37.818;2023-06-01T13:32:09;11.75;;;4.10;;
75154;SDS011;63735;44.730;37.818;2023-06-01T13:34:35;9.70;;;3.30;;
75154;SDS011;63735;44.730;37.818;2023-06-01T13:37:01;8.55;;;3.60;;
75154;SDS011;63735;44.730;37.818;2023-06-01T13:39:27;11.65;;;3.42;;
75154;SDS011;63735;44.730;37.818;2023-06-01T13:41:53;7.32;;;3.67;;
75154;SDS011;63735;44.730;37.818;2023-06-01T13:44:19;7.57;;;3.30;;
75154;SDS011;63735;44.730;37.818;2023-06-01T13:46:45;7.95;;;3.20;;
75154;SDS011;63735;44.730;37.818;2023-06-01T13:49:11;10.15;;;3.50;;
75154;SDS011;63735;44.730;37.818;2023-06-01T13:51:37;12.25;;;4.85;;
75154;SDS011;63735;44.730;37.818;2023-06-01T13:54:03;13.50;;;4.28;;
75154;SDS011;63735;44.730;37.818;2023-06-01T13:56:30;11.90;;;4.68;;
75154;SDS011;63735;44.730;37.818;2023-06-01T13:58:56;10.50;;;3.53;;
75154;SDS011;63735;44.730;37.818;2023-06-01T14:01:22;8.38;;;3.17;;
75154;SDS011;63735;44.730;37.818;2023-06-01T14:03:48;10.65;;;4.85;;
75154;SDS011;63735;44.730;37.818;2023-06-01T14:06:14;6.85;;;3.75;;
75154;SDS011;63735;44.730;37.818;2023-06-01T14:08:41;10.20;;;4.00;;
75154;SDS011;63735;44.730;37.818;2023-06-01T14:11:07;7.15;;;3.50;;
75154;SDS011;63735;44.730;37.818;2023-06-01T14:13:33;5.03;;;2.40;;
75154;SDS011;63735;44.730;37.818;2023-06-01T14:15:59;10.25;;;4.25;;
75154;SDS011;63735;44.730;37.818;2023-06-01T14:18:25;10.60;;;3.78;;
75154;SDS011;63735;44.730;37.818;2023-06-01T14:20:51;11.05;;;3.88;;
75154;SDS011;63735;44.730;37.818;2023-06-01T14:23:17;10.52;;;3.92;;
75154;SDS011;63735;44.730;37.818;2023-06-01T14:25:43;8.15;;;3.47;;
75154;SDS011;63735;44.730;37.818;2023-06-01T14:28:10;4.43;;;3.22;;
75154;SDS011;63735;44.730;37.818;2023-06-01T14:30:36;9.18;;;3.58;;
75154;SDS011;63735;44.730;37.818;2023-06-01T14:33:02;7.45;;;2.75;;
75154;SDS011;63735;44.730;37.818;2023-06-01T14:35:28;7.63;;;3.53;;
75154;SDS011;63735;44.730;37.818;2023-06-01T14:37:53;8.45;;;3.47;;
75154;SDS011;63735;44.730;37.818;2023-06-01T14:40:20;10.00;;;3.28;;
75154;SDS011;63735;44.730;37.818;2023-06-01T14:42:47;7.28;;;3.67;;
75154;SDS011;63735;44.730;37.818;2023-06-01T14:45:13;4.75;;;2.10;;
75154;SDS011;63735;44.730;37.818;2023-06-01T14:47:39;5.93;;;3.05;;
75154;SDS011;63735;44.730;37.818;2023-06-01T14:50:06;7.85;;;3.67;;
75154;SDS011;63735;44.730;37.818;2023-06-01T14:52:33;12.32;;;4.53;;
75154;SDS011;63735;44.730;37.818;2023-06-01T14:54:59;14.30;;;4.68;;
75154;SDS011;63735;44.730;37.818;2023-06-01T14:57:25;9.15;;;3.55;;
75154;SDS011;63735;44.730;37.818;2023-06-01T14:59:51;8.50;;;3.83;;
75154;SDS011;63735;44.730;37.818;2023-06-01T15:02:17;6.60;;;4.75;;
75154;SDS011;63735;44.730;37.818;2023-06-01T15:04:43;10.50;;;3.63;;
75154;SDS011;63735;44.730;37.818;2023-06-01T15:09:35;8.07;;;3.65;;
75154;SDS011;63735;44.730;37.818;2023-06-01T15:12:01;9.48;;;3.90;;
75154;SDS011;63735;44.730;37.818;2023-06-01T15:14:28;7.30;;;3.72;;
75154;SDS011;63735;44.730;37.818;2023-06-01T15:16:54;14.82;;;4.88;;
75154;SDS011;63735;44.730;37.818;2023-06-01T15:19:20;8.15;;;4.40;;
75154;SDS011;63735;44.730;37.818;2023-06-01T15:21:46;8.93;;;3.42;;
75154;SDS011;63735;44.730;37.818;2023-06-01T15:24:11;11.82;;;4.40;;
75154;SDS011;63735;44.730;37.818;2023-06-01T15:26:37;14.57;;;4.43;;
75154;SDS011;63735;44.730;37.818;2023-06-01T15:29:03;8.88;;;4.40;;
75154;SDS011;63735;44.730;37.818;2023-06-01T15:31:29;7.18;;;4.38;;
75154;SDS011;63735;44.730;37.818;2023-06-01T15:33:55;10.73;;;4.93;;
75154;SDS011;63735;44.730;37.818;2023-06-01T15:36:21;13.55;;;4.53;;
75154;SDS011;63735;44.730;37.818;2023-06-01T15:38:47;13.60;;;5.63;;
75154;SDS011;63735;44.730;37.818;2023-06-01T15:41:13;13.65;;;4.15;;
75154;SDS011;63735;44.730;37.818;2023-06-01T15:43:38;9.50;;;4.68;;